Time;durP1;ratioP1;P1;durP2;ratioP2;P2;SDS_P1;SDS_P2;PMS_P1;PMS_P2;Temp;Humidity;BMP_temperature;BMP_pressure;BME280_temperature;BME280_humidity;BME280_pressure;Samples;Min_cycle;Max_cycle;Signal;HPM_P1;HPM_P2
2023/12/28 00:00:15;;;;;;;46.00;19.70;;;;;;;1.48;80.82;100844.87;105270;1289;61067;-55
2023/12/28 00:03:01;;;;;;;45.10;20.10;;;;;;;1.47;81.31;100849.27;106653;1285;74274;-58
2023/12/28 00:05:47;;;;;;;44.80;19.20;;;;;;;1.44;80.34;100850.90;106697;1288;67496;-59
2023/12/28 00:08:33;;;;;;;45.50;18.70;;;;;;;1.43;80.02;100847.29;106662;1288;70558;-59
2023/12/28 00:11:20;;;;;;;37.80;18.90;;;;;;;1.42;79.81;100848.48;106613;1285;59685;-58
2023/12/28 00:14:06;;;;;;;35.60;17.90;;;;;;;1.44;79.92;100850.04;106668;1285;58910;-58
2023/12/28 00:16:52;;;;;;;38.20;17.90;;;;;;;1.44;79.99;100850.39;106666;1285;73298;-56
2023/12/28 00:19:38;;;;;;;39.20;17.80;;;;;;;1.47;80.11;100843.65;106562;1286;68390;-59
2023/12/28 00:22:24;;;;;;;42.00;17.40;;;;;;;1.45;80.13;100835.30;105430;1286;71200;-58
2023/12/28 00:25:10;;;;;;;41.20;17.10;;;;;;;1.43;80.38;100837.45;105308;1288;61154;-55
2023/12/28 00:27:57;;;;;;;42.60;18.10;;;;;;;1.42;80.21;100828.60;105297;1285;61276;-57
2023/12/28 00:30:43;;;;;;;36.80;18.50;;;;;;;1.44;80.71;100823.55;105330;1286;76202;-57
2023/12/28 00:33:30;;;;;;;38.90;16.20;;;;;;;1.39;80.67;100811.20;105316;1288;67398;-55
2023/12/28 00:36:16;;;;;;;40.20;16.40;;;;;;;1.39;80.78;100808.98;105274;1285;73397;-57
2023/12/28 00:39:03;;;;;;;36.50;16.40;;;;;;;1.43;81.27;100816.54;105302;1288;61233;-57
2023/12/28 00:41:49;;;;;;;40.70;16.00;;;;;;;1.49;81.37;100798.36;105257;1288;61761;-56
2023/12/28 00:44:35;;;;;;;38.40;16.20;;;;;;;1.53;81.62;100790.98;98707;1286;10008145;-58
2023/12/28 00:47:21;;;;;;;30.40;14.30;;;;;;;1.53;81.32;100790.30;106577;1288;70688;-59
2023/12/28 00:50:08;;;;;;;31.20;14.50;;;;;;;1.53;81.85;100784.68;105950;1288;59676;-56
2023/12/28 00:52:54;;;;;;;35.80;16.10;;;;;;;1.54;81.65;100774.70;106627;1285;59899;-59
2023/12/28 00:55:40;;;;;;;33.90;15.50;;;;;;;1.57;81.84;100778.82;105956;1286;73453;-59
2023/12/28 00:58:26;;;;;;;38.60;17.00;;;;;;;1.61;81.41;100770.56;105309;1286;67219;-58
2023/12/28 01:01:12;;;;;;;;;;;;;;;1.61;81.35;100781.80;105347;1286;71790;-57
2023/12/28 01:03:58;;;;;;;32.60;16.10;;;;;;;1.58;81.27;100782.75;105167;1291;61277;-56
2023/12/28 01:06:45;;;;;;;43.20;16.30;;;;;;;1.58;81.06;100779.33;105298;1285;61163;-55
2023/12/28 01:09:34;;;;;;;47.60;16.30;;;;;;;1.53;81.03;100778.74;105316;1284;74101;-55
2023/12/28 01:12:20;;;;;;;33.30;15.60;;;;;;;1.50;81.30;100770.67;105269;1292;67204;-56
2023/12/28 01:15:07;;;;;;;35.20;14.90;;;;;;;1.50;81.24;100759.14;105272;1287;71165;-57
2023/12/28 01:17:54;;;;;;;40.20;15.90;;;;;;;1.51;81.76;100769.02;105339;1288;61266;-54
2023/12/28 01:20:40;;;;;;;39.70;15.90;;;;;;;1.51;81.42;100769.87;105381;1286;59747;-57
2023/12/28 01:23:26;;;;;;;33.20;15.10;;;;;;;1.52;81.88;100770.23;105303;1285;73757;-56
2023/12/28 01:26:16;;;;;;;33.40;15.60;;;;;;;1.54;81.92;100770.77;105264;1290;67277;-56
2023/12/28 01:29:03;;;;;;;39.80;15.00;;;;;;;1.53;81.95;100764.66;105280;1285;72236;-54
2023/12/28 01:31:49;;;;;;;35.60;16.40;;;;;;;1.56;81.94;100756.04;105335;1289;61399;-56
2023/12/28 01:34:35;;;;;;;33.80;16.70;;;;;;;1.58;81.75;100748.09;105200;1289;61135;-54
2023/12/28 01:37:22;;;;;;;36.80;16.00;;;;;;;1.58;82.22;100737.38;105384;1286;74006;-58
2023/12/28 01:40:09;;;;;;;32.10;16.30;;;;;;;1.60;81.94;100726.56;105355;1286;70182;-55
2023/12/28 01:42:55;;;;;;;33.00;15.80;;;;;;;1.59;81.91;100718.20;105307;1286;74069;-55
2023/12/28 01:45:42;;;;;;;31.60;15.80;;;;;;;1.57;82.04;100706.95;105310;1286;61316;-57
2023/12/28 01:48:28;;;;;;;;;;;;;;;1.55;82.27;100696.75;105352;1286;61067;-55
2023/12/28 01:51:15;;;;;;;30.30;13.80;;;;;;;1.57;82.15;100689.80;105360;1288;73545;-56
2023/12/28 01:54:01;;;;;;;34.00;13.90;;;;;;;1.59;82.22;100681.52;106656;1285;67367;-58
2023/12/28 01:56:48;;;;;;;32.80;15.00;;;;;;;1.61;82.05;100673.40;106497;1286;71697;-58
2023/12/28 01:59:34;;;;;;;32.60;14.20;;;;;;;1.61;82.41;100669.31;106507;1285;59261;-59
2023/12/28 02:02:22;;;;;;;31.40;14.30;;;;;;;1.63;82.26;100659.16;106699;1283;58810;-59
2023/12/28 02:05:10;;;;;;;29.40;13.40;;;;;;;1.66;82.39;100647.17;105584;1283;73355;-57
2023/12/28 02:07:56;;;;;;;31.80;14.40;;;;;;;1.70;81.97;100634.66;106670;1286;67398;-59
2023/12/28 02:10:43;;;;;;;31.40;13.70;;;;;;;1.71;82.10;100620.42;106482;1289;71350;-57
2023/12/28 02:13:29;;;;;;;;;;;;;;;1.74;82.37;100621.33;106716;1285;59017;-59
2023/12/28 02:16:25;;;;;;;;;;;;;;;1.75;82.52;100621.19;106691;1285;58647;-60
2023/12/28 02:19:25;;;;;;;20.90;10.80;;;;;;;1.77;82.59;100617.14;106713;1284;74170;-55
2023/12/28 02:22:15;;;;;;;20.10;10.80;;;;;;;1.79;82.65;100610.89;106645;1284;67484;-56
2023/12/28 02:25:14;;;;;;;25.20;11.80;;;;;;;1.79;82.55;100601.21;106674;1286;71424;-59
2023/12/28 02:28:00;;;;;;;25.00;11.50;;;;;;;1.84;82.97;100585.99;106649;1285;59080;-59
2023/12/28 02:30:46;;;;;;;23.30;11.80;;;;;;;1.89;82.70;100578.28;106669;1285;59319;-57
2023/12/28 02:33:50;;;;;;;24.90;11.60;;;;;;;1.92;82.62;100568.32;106705;1285;73365;-59
2023/12/28 02:36:41;;;;;;;25.50;11.00;;;;;;;1.94;83.05;100562.40;106723;1286;67482;-59
2023/12/28 02:39:30;;;;;;;25.10;11.30;;;;;;;1.96;82.70;100549.17;105851;1288;72734;-56
2023/12/28 02:42:16;;;;;;;28.70;11.50;;;;;;;1.97;82.70;100544.61;106613;1284;59275;-59
2023/12/28 02:45:02;;;;;;;23.20;10.50;;;;;;;1.96;82.76;100534.21;106627;1288;60730;-59
2023/12/28 02:47:48;;;;;;;;;;;;;;;1.95;83.22;100528.93;106651;1288;73417;-59
2023/12/28 02:50:34;;;;;;;;;;;;;;;1.96;82.98;100524.86;106704;1285;67492;-59
2023/12/28 02:53:20;;;;;;;19.50;8.90;;;;;;;1.97;83.13;100524.37;106529;1285;71424;-58
2023/12/28 02:56:06;;;;;;;22.40;10.00;;;;;;;1.99;82.95;100527.30;106172;1284;59134;-58
2023/12/28 02:58:52;;;;;;;;;;;;;;;2.01;83.12;100524.27;105373;1288;61606;-58
2023/12/28 03:01:39;;;;;;;25.40;10.90;;;;;;;2.00;83.06;100507.42;105363;1285;75970;-55
2023/12/28 03:04:26;;;;;;;26.50;10.70;;;;;;;1.99;83.06;100493.64;105310;1284;67210;-58
2023/12/28 03:07:12;;;;;;;21.30;10.30;;;;;;;1.97;82.77;100496.67;105336;1285;73956;-58
2023/12/28 03:09:58;;;;;;;23.90;10.50;;;;;;;1.94;83.24;100489.81;105360;1285;61257;-57
2023/12/28 03:12:44;;;;;;;21.60;10.60;;;;;;;1.92;83.03;100494.04;105288;1285;62053;-58
2023/12/28 03:15:31;;;;;;;23.30;10.10;;;;;;;1.92;83.56;100500.31;105294;1286;74369;-55
2023/12/28 03:18:17;;;;;;;19.30;9.50;;;;;;;1.93;83.21;100493.55;105336;1284;69714;-55
2023/12/28 03:21:03;;;;;;;;;;;;;;;1.91;83.11;100486.20;105311;1285;71416;-57
2023/12/28 03:23:52;;;;;;;21.70;10.20;;;;;;;1.91;83.43;100476.66;103125;1286;5004224;-58
2023/12/28 03:26:38;;;;;;;18.20;8.80;;;;;;;1.91;83.49;100467.32;106658;1284;58388;-59
2023/12/28 03:29:25;;;;;;;24.20;10.60;;;;;;;1.94;83.86;100473.83;106662;1285;58968;-57
2023/12/28 03:32:11;;;;;;;19.40;9.80;;;;;;;1.98;83.92;100468.80;106733;1286;74356;-59
2023/12/28 03:34:57;;;;;;;23.40;10.00;;;;;;;2.01;83.26;100476.34;106681;1285;67198;-59
2023/12/28 03:37:43;;;;;;;21.40;9.20;;;;;;;2.03;84.03;100472.11;106696;1288;73893;-58
2023/12/28 03:40:29;;;;;;;21.60;9.30;;;;;;;2.08;83.32;100472.85;106208;1286;59575;-58
2023/12/28 03:43:15;;;;;;;22.40;9.80;;;;;;;2.10;83.26;100466.24;105297;1285;61164;-62
2023/12/28 03:46:02;;;;;;;17.90;9.00;;;;;;;2.09;83.30;100459.42;105295;1288;73088;-54
2023/12/28 03:48:48;;;;;;;;;;;;;;;2.05;83.18;100457.52;105336;1286;69277;-58
2023/12/28 03:51:34;;;;;;;18.00;9.50;;;;;;;2.01;83.26;100457.97;105231;1285;73375;-57
2023/12/28 03:54:21;;;;;;;19.20;9.30;;;;;;;1.97;83.73;100456.20;105120;1286;61288;-57
2023/12/28 03:57:07;;;;;;;21.20;9.10;;;;;;;1.95;84.23;100452.10;105188;1286;60007;-57
2023/12/28 03:59:53;;;;;;;20.00;9.70;;;;;;;1.94;83.75;100454.46;105346;1286;73471;-58
2023/12/28 04:02:40;;;;;;;;;;;;;;;1.94;83.29;100449.88;105210;1286;66275;-56
2023/12/28 04:05:26;;;;;;;20.40;8.90;;;;;;;1.91;83.94;100449.82;105762;1284;74006;-59
2023/12/28 04:08:12;;;;;;;23.90;10.30;;;;;;;1.87;83.20;100449.77;106744;1288;58994;-56
2023/12/28 04:10:58;;;;;;;21.70;8.60;;;;;;;1.84;82.86;100450.90;106676;1285;59193;-58
2023/12/28 04:13:44;;;;;;;20.90;9.20;;;;;;;1.84;83.49;100453.95;105424;1286;73304;-59
2023/12/28 04:16:30;;;;;;;17.60;8.60;;;;;;;1.84;83.26;100455.64;105339;1286;68270;-58
2023/12/28 04:19:16;;;;;;;16.90;9.60;;;;;;;1.82;82.85;100459.19;105307;1288;71327;-55
2023/12/28 04:22:03;;;;;;;18.70;9.00;;;;;;;1.80;83.09;100450.14;105242;1285;60410;-56
2023/12/28 04:24:49;;;;;;;17.90;8.60;;;;;;;1.80;83.73;100452.19;105257;1286;61549;-58
2023/12/28 04:27:36;;;;;;;18.00;9.00;;;;;;;1.85;83.70;100463.66;105321;1285;73270;-54
2023/12/28 04:30:22;;;;;;;17.10;8.50;;;;;;;1.92;83.74;100465.65;105819;1285;66539;-58
2023/12/28 04:33:08;;;;;;;15.70;8.50;;;;;;;2.01;84.67;100463.75;105295;1285;73605;-61
2023/12/28 04:35:54;;;;;;;19.90;9.20;;;;;;;2.07;84.18;100466.05;105328;1284;61094;-56
2023/12/28 04:38:41;;;;;;;17.20;8.10;;;;;;;2.14;84.10;100458.49;105379;1285;61144;-56
2023/12/28 04:41:27;;;;;;;16.70;8.10;;;;;;;2.25;84.27;100449.48;105318;1285;74005;-58
2023/12/28 04:44:13;;;;;;;16.80;7.50;;;;;;;2.39;84.16;100449.85;105399;1285;69905;-57
2023/12/28 04:47:01;;;;;;;13.00;8.10;;;;;;;2.49;83.98;100442.00;105308;1285;71410;-57
2023/12/28 04:49:48;;;;;;;20.40;8.70;;;;;;;2.53;83.66;100441.89;105286;1286;60997;-57
2023/12/28 04:52:34;;;;;;;21.40;9.00;;;;;;;2.60;83.75;100442.14;105378;1285;61249;-59
2023/12/28 04:55:20;;;;;;;22.20;8.80;;;;;;;2.66;83.63;100441.36;105350;1284;73210;-61
2023/12/28 04:58:07;;;;;;;18.30;9.20;;;;;;;2.74;83.52;100433.80;105355;1285;67002;-59
2023/12/28 05:00:53;;;;;;;;;;;;;;;2.79;83.46;100426.38;105347;1284;71322;-54
2023/12/28 05:03:39;;;;;;;14.30;8.10;;;;;;;2.82;83.49;100421.64;105329;1285;61288;-57
2023/12/28 05:06:28;;;;;;;17.90;9.00;;;;;;;2.84;83.33;100418.11;105291;1286;61704;-56
2023/12/28 05:09:14;;;;;;;20.00;9.30;;;;;;;2.89;83.27;100424.80;106619;1284;73070;-58
2023/12/28 05:12:00;;;;;;;14.20;7.50;;;;;;;2.95;83.14;100427.43;105492;1285;67461;-58
2023/12/28 05:14:46;;;;;;;15.80;8.10;;;;;;;2.99;83.05;100423.56;105307;1285;71767;-57
2023/12/28 05:17:33;;;;;;;14.00;8.40;;;;;;;3.02;82.98;100431.25;105299;1288;63392;-55
2023/12/28 05:20:19;;;;;;;13.40;7.40;;;;;;;3.07;83.01;100423.48;105291;1285;61136;-58
2023/12/28 05:23:05;;;;;;;28.20;12.20;;;;;;;3.14;82.99;100419.95;105266;1285;77196;-59
2023/12/28 05:25:51;;;;;;;13.80;6.90;;;;;;;3.23;82.88;100407.61;105290;1284;67936;-54
2023/12/28 05:28:38;;;;;;;16.00;8.40;;;;;;;3.32;82.72;100410.27;105315;1288;71366;-58
2023/12/28 05:31:24;;;;;;;20.50;7.50;;;;;;;3.40;82.68;100413.91;105303;1286;61157;-56
2023/12/28 05:34:11;;;;;;;14.70;7.80;;;;;;;3.45;82.58;100414.48;105307;1285;61167;-57
2023/12/28 05:36:57;;;;;;;15.30;6.80;;;;;;;3.50;82.43;100404.30;105267;1285;75936;-55
2023/12/28 05:39:43;;;;;;;10.30;7.30;;;;;;;3.58;82.28;100404.04;105351;1288;67369;-59
2023/12/28 05:42:29;;;;;;;10.90;6.20;;;;;;;3.63;81.98;100399.48;105355;1285;71147;-57
2023/12/28 05:45:15;;;;;;;16.50;7.10;;;;;;;3.69;82.02;100411.27;105324;1285;61964;-58
2023/12/28 05:48:02;;;;;;;13.20;7.40;;;;;;;3.74;82.06;100416.77;105342;1285;60082;-58
2023/12/28 05:50:49;;;;;;;13.60;7.10;;;;;;;3.77;81.96;100415.09;106664;1284;73137;-59
2023/12/28 05:53:35;;;;;;;17.70;8.20;;;;;;;3.82;81.90;100410.88;106718;1285;67877;-58
2023/12/28 05:56:21;;;;;;;15.40;8.20;;;;;;;3.88;81.28;100409.38;105861;1285;71390;-55
2023/12/28 05:59:07;;;;;;;15.60;8.10;;;;;;;3.92;81.38;100417.94;105316;1286;61240;-57
2023/12/28 06:01:53;;;;;;;16.00;8.60;;;;;;;3.94;81.40;100411.81;105353;1285;59187;-57
2023/12/28 06:04:39;;;;;;;;;;;;;;;3.98;81.47;100408.77;105353;1285;73226;-58
2023/12/28 06:07:26;;;;;;;15.60;7.90;;;;;;;3.99;80.94;100411.00;105332;1285;67302;-58
2023/12/28 06:10:12;;;;;;;;;;;;;;;4.02;81.17;100424.15;105392;1285;72131;-59
2023/12/28 06:12:58;;;;;;;;;;;;;;;4.07;81.03;100429.82;105339;1285;61612;-57
2023/12/28 06:15:44;;;;;;;15.50;8.80;;;;;;;4.13;81.12;100443.00;105321;1286;61257;-54
2023/12/28 06:18:31;;;;;;;;;;;;;;;4.17;81.18;100447.95;105300;1284;73394;-58
2023/12/28 06:21:17;;;;;;;14.10;8.00;;;;;;;4.21;81.01;100454.63;105391;1285;67277;-57
2023/12/28 06:24:04;;;;;;;13.80;6.90;;;;;;;4.21;81.30;100464.02;105346;1286;72936;-57
2023/12/28 06:26:50;;;;;;;;;;;;;;;4.19;81.56;100468.09;106707;1285;58962;-59
2023/12/28 06:29:36;;;;;;;12.80;6.10;;;;;;;4.14;82.37;100465.01;106681;1285;59759;-59
2023/12/28 06:32:22;;;;;;;15.00;6.80;;;;;;;4.12;82.32;100470.28;106702;1285;72140;-58
2023/12/28 06:35:09;;;;;;;11.20;7.10;;;;;;;4.11;82.77;100472.31;106730;1285;68849;-59
2023/12/28 06:37:55;;;;;;;10.70;6.70;;;;;;;4.07;82.98;100473.66;106669;1285;72357;-58
2023/12/28 06:40:41;;;;;;;10.20;6.20;;;;;;;4.05;83.22;100469.54;106718;1285;59173;-59
2023/12/28 06:43:27;;;;;;;12.30;7.00;;;;;;;4.04;83.04;100470.56;105983;1284;63559;-59
2023/12/28 06:46:13;;;;;;;9.70;7.20;;;;;;;4.03;83.19;100470.89;105362;1284;72206;-58
2023/12/28 06:48:59;;;;;;;13.00;7.20;;;;;;;3.99;83.75;100476.32;105278;1284;66708;-55
2023/12/28 06:51:46;;;;;;;12.10;6.80;;;;;;;3.97;83.72;100471.02;105283;1285;71342;-58
2023/12/28 06:54:32;;;;;;;11.20;7.10;;;;;;;3.96;83.69;100472.72;105324;1285;61266;-55
2023/12/28 06:57:19;;;;;;;12.30;6.80;;;;;;;3.95;83.95;100486.52;105349;1285;63100;-55
2023/12/28 07:00:06;;;;;;;11.40;6.30;;;;;;;3.95;83.43;100500.16;105365;1285;73285;-60
2023/12/28 07:02:52;;;;;;;9.60;7.50;;;;;;;3.95;83.47;100501.70;106649;1284;68126;-59
2023/12/28 07:05:38;;;;;;;13.00;6.90;;;;;;;3.96;84.06;100506.65;106560;1284;71940;-60
2023/12/28 07:08:25;;;;;;;9.40;6.00;;;;;;;3.98;84.07;100508.20;105715;1286;61130;-57
2023/12/28 07:11:11;;;;;;;9.20;5.80;;;;;;;4.02;83.84;100506.70;105306;1286;59827;-58
2023/12/28 07:13:58;;;;;;;9.90;5.50;;;;;;;4.04;84.09;100509.80;105341;1285;73296;-58
2023/12/28 07:16:45;;;;;;;9.30;5.90;;;;;;;4.08;84.13;100524.84;105345;1286;69005;-59
2023/12/28 07:19:31;;;;;;;10.60;6.70;;;;;;;4.12;84.12;100531.19;105334;1285;75326;-59
2023/12/28 07:22:17;;;;;;;;;;;;;;;4.16;84.29;100538.55;105266;1285;61156;-58
2023/12/28 07:25:08;;;;;;;9.10;5.60;;;;;;;4.20;84.05;100538.89;105383;1285;62830;-58
2023/12/28 07:27:54;;;;;;;10.00;5.80;;;;;;;4.22;83.88;100523.56;106697;1284;74213;-60
2023/12/28 07:30:41;;;;;;;7.80;4.90;;;;;;;4.25;84.27;100524.27;106021;1285;67282;-59
2023/12/28 07:33:27;;;;;;;7.60;5.00;;;;;;;4.30;84.90;100533.53;105347;1285;72279;-58
2023/12/28 07:36:13;;;;;;;9.50;5.30;;;;;;;4.39;84.80;100538.38;105308;1285;61272;-59
2023/12/28 07:38:59;;;;;;;10.60;5.40;;;;;;;4.44;84.97;100541.15;105348;1285;61257;-58
2023/12/28 07:41:46;;;;;;;6.90;4.80;;;;;;;4.46;84.97;100541.34;105298;1285;73315;-59
2023/12/28 07:44:32;;;;;;;;;;;;;;;4.50;84.93;100537.27;106675;1285;67459;-59
2023/12/28 07:47:18;;;;;;;6.50;4.80;;;;;;;4.54;85.01;100539.86;106612;1284;73028;-59
2023/12/28 07:50:13;;;;;;;9.10;5.50;;;;;;;4.61;84.95;100543.83;106704;1284;58918;-59
2023/12/28 07:53:00;;;;;;;7.90;5.10;;;;;;;4.67;85.22;100537.38;106665;1285;60841;-59
2023/12/28 07:55:45;;;;;;;;;;;;;;;4.75;84.92;100534.35;105688;1285;74901;-60
2023/12/28 07:58:32;;;;;;;;;;;;;;;4.83;84.89;100539.35;105320;1288;67329;-58
2023/12/28 08:01:19;;;;;;;8.70;5.20;;;;;;;4.90;84.71;100547.08;105229;1285;71257;-58
2023/12/28 08:04:05;;;;;;;6.50;4.80;;;;;;;4.94;84.62;100543.52;105327;1288;61160;-55
2023/12/28 08:06:51;;;;;;;;;;;;;;;4.99;84.70;100537.73;105352;1286;60753;-58
2023/12/28 08:09:37;;;;;;;16.80;4.90;;;;;;;5.04;84.61;100542.03;105413;1284;73739;-56
2023/12/28 08:12:28;;;;;;;8.30;4.90;;;;;;;5.08;84.62;100540.34;105275;1285;67142;-58
2023/12/28 08:15:14;;;;;;;5.80;4.50;;;;;;;5.14;84.70;100542.42;105257;1285;73950;-59
2023/12/28 08:18:00;;;;;;;6.20;4.60;;;;;;;5.20;84.64;100544.31;105283;1285;61135;-59
2023/12/28 08:20:47;;;;;;;7.50;4.80;;;;;;;5.28;84.56;100539.90;105077;1284;386397;-58
2023/12/28 08:23:34;;;;;;;8.90;4.40;;;;;;;5.36;84.44;100547.29;105378;1288;72395;-58
2023/12/28 08:26:20;;;;;;;6.40;4.30;;;;;;;5.44;84.39;100542.70;105327;1284;68441;-57
2023/12/28 08:29:07;;;;;;;7.00;4.50;;;;;;;5.51;84.38;100544.09;105313;1285;71324;-58
2023/12/28 08:31:53;;;;;;;6.00;4.20;;;;;;;5.57;84.27;100547.36;105286;1285;61147;-59
2023/12/28 08:34:39;;;;;;;5.00;3.90;;;;;;;5.66;84.04;100560.39;105285;1285;61279;-62
2023/12/28 08:37:26;;;;;;;8.10;4.40;;;;;;;5.73;84.05;100561.41;105329;1285;76128;-57
2023/12/28 08:40:13;;;;;;;4.90;3.80;;;;;;;5.79;83.84;100565.86;105274;1285;67210;-57
2023/12/28 08:42:59;;;;;;;8.20;4.50;;;;;;;5.86;83.91;100567.25;105446;1284;72602;-59
2023/12/28 08:45:45;;;;;;;6.50;4.10;;;;;;;5.91;83.59;100567.13;105317;1285;61935;-56
2023/12/28 08:48:32;;;;;;;6.10;3.80;;;;;;;5.96;83.17;100574.50;105314;1285;61276;-57
2023/12/28 08:51:18;;;;;;;5.90;3.60;;;;;;;6.02;83.18;100571.77;105299;1284;73286;-57
2023/12/28 08:54:04;;;;;;;6.60;3.60;;;;;;;6.06;83.24;100569.04;105383;1285;67190;-57
2023/12/28 08:56:50;;;;;;;7.20;3.20;;;;;;;6.12;82.52;100565.98;105213;1285;73058;-58
2023/12/28 08:59:37;;;;;;;10.90;3.20;;;;;;;6.19;82.78;100563.41;105246;1285;61046;-58
2023/12/28 09:02:23;;;;;;;4.40;3.10;;;;;;;6.26;82.69;100560.65;105359;1285;62041;-57
2023/12/28 09:05:10;;;;;;;4.80;3.20;;;;;;;6.33;82.89;100569.55;105293;1284;75881;-58
2023/12/28 09:07:56;;;;;;;4.60;2.90;;;;;;;6.37;82.03;100561.70;105067;1285;67185;-56
2023/12/28 09:10:43;;;;;;;5.60;3.70;;;;;;;6.42;82.23;100566.14;105173;1285;72302;-57
2023/12/28 09:13:29;;;;;;;5.70;3.00;;;;;;;6.46;82.35;100569.39;105200;1285;61183;-57
2023/12/28 09:16:16;;;;;;;4.10;3.00;;;;;;;6.49;82.33;100561.52;105190;1285;63440;-58
2023/12/28 09:19:02;;;;;;;6.20;3.80;;;;;;;6.49;81.44;100559.47;106632;1285;73231;-60
2023/12/28 09:21:48;;;;;;;4.50;3.30;;;;;;;6.55;82.10;100561.86;106606;1285;68913;-59
2023/12/28 09:24:34;;;;;;;7.60;3.80;;;;;;;6.59;81.72;100566.99;106590;1285;71343;-60
2023/12/28 09:27:23;;;;;;;6.70;3.30;;;;;;;6.63;81.42;100565.97;106583;1288;59016;-60
2023/12/28 09:30:10;;;;;;;4.80;3.30;;;;;;;6.67;80.87;100568.02;106578;1285;59050;-60
2023/12/28 09:33:17;;;;;;;;;;;;;;;;;;;;;
2023/12/28 09:36:13;;;;;;;8.40;3.70;;;;;;;6.75;80.79;100572.30;106177;1285;68309;-58
2023/12/28 09:38:59;;;;;;;9.30;4.70;;;;;;;6.78;80.75;100574.31;106619;1284;71290;-60
2023/12/28 09:41:49;;;;;;;6.60;3.40;;;;;;;6.82;80.70;100568.83;106608;1285;58938;-60
2023/12/28 09:44:39;;;;;;;8.70;4.10;;;;;;;6.82;80.34;100570.38;106658;1285;60402;-60
2023/12/28 09:47:25;;;;;;;6.30;3.50;;;;;;;6.84;80.11;100571.05;106494;1285;73237;-60
2023/12/28 09:50:13;;;;;;;8.80;3.80;;;;;;;6.84;80.04;100573.79;106537;1285;68483;-59
2023/12/28 09:52:59;;;;;;;7.10;3.50;;;;;;;6.87;80.46;100578.42;106493;1285;71151;-60
2023/12/28 09:55:45;;;;;;;6.20;3.80;;;;;;;6.88;79.93;100575.51;106537;1285;58967;-59
2023/12/28 09:58:35;;;;;;;4.10;3.60;;;;;;;6.91;80.46;100578.08;106497;1285;59746;-59
2023/12/28 10:01:22;;;;;;;6.00;3.80;;;;;;;6.90;79.91;100583.21;106537;1285;73600;-61
2023/12/28 10:04:08;;;;;;;5.20;4.40;;;;;;;6.91;80.28;100585.78;106467;1285;67425;-61
2023/12/28 10:06:54;;;;;;;;;;;;;;;6.90;79.69;100589.73;106440;1285;71605;-62
2023/12/28 10:09:40;;;;;;;;;;;;;;;6.90;79.64;100584.41;106457;1285;59016;-61
2023/12/28 10:12:27;;;;;;;;;;;;;;;6.90;80.04;100581.33;106599;1285;60343;-60
2023/12/28 10:15:13;;;;;;;6.10;3.70;;;;;;;6.90;79.74;100578.06;106559;1285;73379;-60
2023/12/28 10:18:07;;;;;;;6.20;3.80;;;;;;;6.89;79.58;100577.56;106548;1285;67655;-59
2023/12/28 10:20:54;;;;;;;5.90;3.90;;;;;;;6.90;79.55;100573.95;106507;1286;71939;-59
2023/12/28 10:23:41;;;;;;;7.70;4.30;;;;;;;6.91;79.57;100571.89;106543;1285;59187;-61
2023/12/28 10:26:28;;;;;;;;;;;;;;;6.94;79.59;100577.89;106601;1285;59153;-60
2023/12/28 10:29:14;;;;;;;10.00;4.80;;;;;;;6.97;79.68;100570.69;106533;1285;73242;-59
2023/12/28 10:32:00;;;;;;;6.40;3.80;;;;;;;7.01;79.79;100564.86;106555;1285;69237;-59
2023/12/28 10:34:46;;;;;;;6.10;3.80;;;;;;;7.05;79.69;100566.22;106544;1286;72445;-59
2023/12/28 10:37:33;;;;;;;10.00;4.80;;;;;;;7.07;79.62;100562.95;106565;1285;58888;-59
2023/12/28 10:40:31;;;;;;;;;;;;;;;;;;;;;
2023/12/28 10:43:23;;;;;;;7.00;4.60;;;;;;;7.14;79.20;100561.23;106573;1285;73066;-59
2023/12/28 10:46:10;;;;;;;5.20;4.00;;;;;;;7.17;79.21;100556.59;106421;1285;206623;-57
2023/12/28 10:49:00;;;;;;;5.50;3.60;;;;;;;7.22;79.03;100543.89;106524;1291;71355;-59
2023/12/28 10:51:52;;;;;;;6.00;3.70;;;;;;;7.26;78.26;100549.02;106275;1287;59370;-59
2023/12/28 10:54:57;;;;;;;6.70;4.40;;;;;;;7.32;78.77;100544.51;106550;1286;60206;-60
2023/12/28 10:57:58;;;;;;;6.80;4.10;;;;;;;7.38;78.13;100550.31;106513;1286;73417;-59
2023/12/28 11:01:02;;;;;;;;;;;;;;;;;;;;;
2023/12/28 11:04:08;;;;;;;;;;;;;;;;;;;;;
2023/12/28 11:06:55;;;;;;;;;;;;;;;7.46;77.26;100546.16;106410;1286;59226;-58
2023/12/28 11:09:42;;;;;;;9.90;3.80;;;;;;;7.49;77.64;100544.61;106496;1287;59056;-58
2023/12/28 11:12:28;;;;;;;;;;;;;;;7.50;77.31;100543.91;106419;1287;73235;-56
2023/12/28 11:15:14;;;;;;;4.80;3.40;;;;;;;7.52;77.35;100543.73;106523;1287;68699;-57
2023/12/28 11:18:03;;;;;;;5.40;3.40;;;;;;;7.54;77.64;100540.81;106503;1286;71378;-59
2023/12/28 11:20:58;;;;;;;6.00;3.20;;;;;;;7.57;78.05;100540.63;106463;1286;59310;-59
2023/12/28 11:23:46;;;;;;;5.70;3.70;;;;;;;7.62;78.45;100541.98;106496;1287;59160;-58
2023/12/28 11:26:32;;;;;;;6.30;3.30;;;;;;;7.63;77.12;100542.99;106455;1287;74335;-61
2023/12/28 11:29:23;;;;;;;6.30;3.30;;;;;;;7.68;77.92;100543.15;35468;1287;10002703;-60
2023/12/28 11:32:09;;;;;;;5.10;3.70;;;;;;;7.72;77.98;100541.08;106410;1287;75134;-61
2023/12/28 11:34:59;;;;;;;6.30;3.90;;;;;;;7.75;77.51;100541.91;106496;1286;59023;-60
2023/12/28 11:37:48;;;;;;;6.80;3.40;;;;;;;7.78;77.69;100537.95;106409;1286;59988;-60
2023/12/28 11:40:51;;;;;;;7.20;3.90;;;;;;;7.82;77.33;100537.02;106429;1288;74058;-61
2023/12/28 11:43:37;;;;;;;5.50;3.70;;;;;;;7.87;77.03;100536.83;106451;1287;67463;-61
2023/12/28 11:46:23;;;;;;;5.20;3.50;;;;;;;7.88;76.88;100531.67;106419;1287;71391;-61
2023/12/28 11:49:12;;;;;;;18.80;7.00;;;;;;;7.92;77.13;100532.16;106399;1287;59152;-61
2023/12/28 11:52:08;;;;;;;;;;;;;;;;;;;;;
2023/12/28 11:54:58;;;;;;;8.00;3.80;;;;;;;8.03;76.23;100527.46;106495;1288;73410;-62
2023/12/28 11:57:44;;;;;;;4.60;3.60;;;;;;;8.04;76.69;100525.39;106314;1286;68631;-61
2023/12/28 12:00:30;;;;;;;4.50;3.40;;;;;;;8.09;77.05;100527.77;106444;1286;71969;-61
2023/12/28 12:03:16;;;;;;;8.00;4.10;;;;;;;8.10;76.28;100524.48;106482;1287;59251;-62
2023/12/28 12:06:19;;;;;;;9.60;3.90;;;;;;;8.13;76.63;100522.58;106447;1286;60175;-62
2023/12/28 12:09:36;;;;;;;;;;;;;;;;;;;;;
2023/12/28 12:12:32;;;;;;;5.50;3.80;;;;;;;8.27;75.36;100525.89;106469;1286;67071;-61
2023/12/28 12:15:18;;;;;;;4.10;3.30;;;;;;;8.39;76.33;100527.70;106099;1288;72954;-60
2023/12/28 12:18:05;;;;;;;;;;;;;;;8.44;75.58;100518.89;105104;1290;61042;-60
2023/12/28 12:20:51;;;;;;;5.60;3.40;;;;;;;8.51;76.08;100522.45;105072;1287;61368;-59
2023/12/28 12:23:37;;;;;;;9.30;6.00;;;;;;;8.68;76.68;100522.46;105016;1291;74154;-60
2023/12/28 12:26:26;;;;;;;5.40;3.50;;;;;;;8.74;75.71;100521.02;105083;1287;67092;-59
2023/12/28 12:29:14;;;;;;;5.70;3.60;;;;;;;8.73;75.14;100522.75;105125;1286;72026;-60
2023/12/28 12:32:03;;;;;;;6.30;4.30;;;;;;;8.67;75.21;100524.70;106484;1285;58921;-61
2023/12/28 12:34:52;;;;;;;6.50;4.70;;;;;;;8.76;75.11;100523.92;106479;1286;58949;-62
2023/12/28 12:37:50;;;;;;;;;;;;;;;;;;;;;
2023/12/28 12:43:59;;;;;;;5.90;3.60;;;;;;;9.56;74.22;100513.83;105050;1292;72974;-60
2023/12/28 12:46:46;;;;;;;5.50;3.60;;;;;;;9.73;73.67;100517.38;104536;1294;63325;-60
2023/12/28 12:49:32;;;;;;;5.00;3.60;;;;;;;9.65;73.57;100514.21;104520;1293;61485;-59
2023/12/28 12:52:19;;;;;;;;;;;;;;;9.74;72.21;100512.71;104576;1292;75290;-59
2023/12/28 12:55:10;;;;;;;4.90;3.70;;;;;;;9.84;72.80;100512.57;104555;1297;67224;-59
2023/12/28 12:57:58;;;;;;;4.40;4.00;;;;;;;10.11;72.86;100520.05;105837;1293;72740;-61
2023/12/28 13:01:26;;;;;;;4.30;3.90;;;;;;;10.34;71.86;100517.81;105809;1293;59051;-61
2023/12/28 13:04:18;;;;;;;5.00;4.40;;;;;;;10.48;71.45;100519.11;105867;1293;59221;-62
2023/12/28 13:10:34;;;;;;;6.50;3.50;;;;;;;10.02;72.15;100510.38;105312;1300;68787;-62
2023/12/28 13:13:22;;;;;;;4.50;2.90;;;;;;;9.71;72.25;100516.54;105340;1299;72535;-61
2023/12/28 13:16:08;;;;;;;4.40;3.20;;;;;;;9.55;72.26;100513.31;105344;1298;58877;-61